IPO Monitor
Subscribe Login Login About Us Contact Us Help
Quarterly Reviews
Report Criteria
Report Type: Offer to Most Recent Quote
Period: Oct. 1, 2011 to Dec. 31, 2011
Sort Criteria: Chronological
Industry: All Industries
Securities Types: Common Stock, ADS, EIS, IDS
Underwriting Types: Firm Committment
Region(s):
Foreign Companies: Included
Report Statistics
Number of Companies: 61
Largest Company: Cigna Corp.
Smallest Company: PURE Bioscience
Best Performer: Streamline Health Solutions Inc.
Worst Performer: Nanoviricides Inc.
Total Amount Raised: $4,877.7 Mil.
Average Amount Raised: $80.0 Mil.
Average Percentage Change: -9.1%

Company Symbol Offer
Type
Offer
Date
Amount
Raised
($mil.)
Offer
Price
Close
Price (2011-12-30)
Percent
Change
Market
Value
($mil.)
Streamline Health Solutions Inc. STRM Secondary 2011-12-28 0.404 1.65 1.72 +4.2% 17.7
Venaxis, Inc. APPY Secondary 2011-12-28 1.64 1.02 0.97 -84.2% 9.34
Oculus Innovative Sciences Inc. OCLS Secondary 2011-12-27 2.08 1.15 1.05 -87.0% 30.3
Ampio Pharmaceuticals Inc. AMPE Secondary 2011-12-21 9.44 4.25 4.27 +0.5% 13.3
StemCells Inc. STEM Secondary 2011-12-19 10.0 1.25 0.82 -34.4% 18.3
Quantum Fuel Systems Technologies Worldwide, Inc QTWW Secondary 2011-12-16 10.00 0.95 0.73 -23.2% 19.4
MELA Sciences Inc. (formerly Electro-Optical Sc) MELA Secondary 2011-12-16 16.3 3.25 3.69 +13.5% 111.7
Synergy Resources Corp. SYRG Secondary 2011-12-16 35.0 2.75 2.85 +3.6% 139.2
Orexigen Therapeutics Inc. OREX Secondary 2011-12-15 8.19 1.45 1.61 +11.0% 9.09
ARIAD Pharmaceuticals Inc. ARIA Secondary 2011-12-15 224.0 10.42 12.25 +17.6% 1,890.4
PURE Bioscience PURE Secondary 2011-12-15 0.058 0.37 0.33 -88.9% 0.000
Zoom Technologies Inc. ZOOM Secondary 2011-12-14 0.752 1.29 1.03 -20.2% 24.4
BofI Holding Inc. BOFI Secondary 2011-12-09 12.0 16.00 16.25 +1.6% 183.0
Clearwire Corp. CLWR Secondary 2011-12-09 0.000 2.00 1.94 -3.0% 0.000
Neonode Inc. NEON Secondary 2011-12-09 12.0 4.00 4.75 +18.8% 156.0
Wireless Ronin Technologies Inc. RNIN Secondary 2011-12-07 3.32 1.00 1.20 -76.0% 27.5
Silver Bull Resources Inc. SVBL Secondary 2011-12-06 3.00 0.50 0.54 +8.0% 73.5
EXACT Sciences Corp. EXAS Secondary 2011-12-06 25.0 8.00 8.12 +1.5% 455.0
Scorpio Tankers Inc. STNG Secondary 2011-12-05 38.5 5.50 4.89 -11.1% 191.0
New York Mortgage Trust Inc. NYMT Secondary 2011-12-02 16.6 6.90 7.21 +4.5% 97.9
Retail Opportunity Investments Corp. ROIC Secondary 2011-12-02 70.5 10.85 11.84 +9.1% 576.6
Silver Bull Resources Inc. SVBL Secondary 2011-12-02 7.53 0.50 0.54 +8.0% 70.3
Monmouth Real Estate Investment Corp. MNR Secondary 2011-12-01 16.8 8.39 9.15 +9.1% 359.2
Inovio Pharmaceuticals Inc. INO Secondary 2011-12-01 3.44 0.51 0.43 -15.7% 0.000
Gulfport Energy Corp. GPOR Secondary 2011-11-30 116.0 29.00 29.45 +1.6% 1,619.9
National Retail Properties Inc. NNN Secondary 2011-11-30 180.3 25.75 26.38 +2.4% 2,727.7
Lexicon Pharmaceuticals Inc. (Lexicon Genetics) LXRX Secondary 2011-11-22 16.3 1.13 1.29 +14.2% 0.000
Healthstream Inc HSTM Secondary 2011-11-21 50.4 16.25 18.45 +13.5% 468.1
Kodiak Oil & Gas Corp. KOG Secondary 2011-11-21 325.5 7.75 9.50 +22.6% 2,387.7
Cigna Corp. CI Secondary 2011-11-17 649.8 42.75 42.00 -1.8% 11,989.5
Approach Resources Inc. AREX Secondary 2011-11-16 112.0 28.00 29.41 +5.0% 954.1
Unilife Corp. UNIS Secondary 2011-11-16 35.9 4.35 3.12 -28.3% 226.3
Idenix Pharmaceuticals Inc IDIX Secondary 2011-11-16 61.1 6.50 7.45 +14.6% 786.3
Hanmi Financial Corp. HAFC Secondary 2011-11-16 70.0 0.80 - n/a n/a
BioMed Realty Trust Inc. BMR Secondary 2011-11-16 404.3 17.92 18.08 +0.9% 2,781.2
Cadence Pharmaceuticals Inc. CADX Secondary 2011-11-15 71.3 3.75 3.95 +5.3% 326.3
Microvision Inc. MVIS Secondary 2011-11-15 10.4 0.58 0.36 -92.2% 48.9
Augme Technologies Inc. AUGT Secondary 2011-11-14 20.2 2.15 1.34 -37.7% 124.9
Kennedy-Wilson Holdings, Inc. KW Secondary 2011-11-14 66.0 11.00 10.58 -3.8% 539.3
Mast Therapeutics, Inc. ANX Secondary 2011-11-14 17.0 0.80 0.59 -26.3% 28.2
Cereplast Inc. CERP Secondary 2011-11-14 5.00 1.60 0.96 -40.0% 18.2
Pressure BioSciences Inc. (Boston Biomedica) PBIO Secondary 2011-11-10 0.000 0.01 0.60 +5,900.0% 3.94
Hornbeck Offshore Services Inc HOS Secondary 2011-11-10 210.0 30.00 31.02 +3.4% 1,052.4
Allot Communications Ltd. ALLT Secondary 2011-11-09 71.3 14.25 15.20 +6.7% 447.2
Health Care REIT HCN Secondary 2011-11-07 550.0 50.00 54.53 +9.1% 10,348.7
Education Realty Trust Inc. EDR Secondary 2011-11-04 113.1 9.05 10.23 +13.0% 921.8
Dynavax Technologies Corp. DVAX Secondary 2011-11-04 60.0 2.50 3.32 +32.8% 496.7
Nevada Gold & Casinos Inc. UWN Secondary 2011-11-04 4.33 1.65 1.15 -30.3% 18.2
Encore Capital Group Inc. ECPG Secondary 2011-11-03 0.000 24.35 21.26 -12.7% 0.000
Nanoviricides Inc. NNVC Secondary 2011-11-01 25.0 10.00 0.62 -93.8% 0.000
Catalyst Pharmaceutical Partners Inc. CPRX Secondary 2011-10-28 3.47 1.14 1.29 +13.2% 31.9
Synergy Pharmaceuticals Inc. SGYP Secondary 2011-10-28 0.499 2.12 - n/a n/a
GNC Holdings Inc. GNC Secondary 2011-10-26 495.0 24.75 28.95 +17.0% 2,972.5
CubeSmart CUBE Secondary 2011-10-26 184.0 9.20 10.64 +15.7% 1,272.2
Nara Bancorp Inc. NARA Secondary 2011-10-26 55.0 7.25 - n/a n/a
ADA-ES Inc. ADES Secondary 2011-10-26 30.5 15.25 22.64 +48.5% 219.0
Coldwater Creek Inc CWTR Secondary 2011-10-20 22.5 0.85 1.18 -65.3% 140.6
Atlantic Power Corp. AT Secondary 2011-10-14 143.0 13.00 14.30 +10.0% 1,144.0
Sally Beauty Holdings Inc. SBH Secondary 2011-10-13 0.000 16.75 21.13 +26.1% 3,898.2
Senior Housing Properties Trust SNH Secondary 2011-10-12 168.0 21.00 22.44 +6.9% 3,578.0
Authentidate Holding Corp. ADAT Secondary 2011-10-11 4.11 0.70 0.68 -51.4% 35.5

Last Updated: 2013-12-11 00:08:03 (PT)

[ Contact Us | About Us | Site Map ]

Copyright (c) 1998-2017 IPO Monitor. All rights reserved